Time;durP1;ratioP1;P1;durP2;ratioP2;P2;SDS_P1;SDS_P2;PMS_P1;PMS_P2;Temp;Humidity;BMP_temperature;BMP_pressure;BME280_temperature;BME280_humidity;BME280_pressure;Samples;Min_cycle;Max_cycle;Signal;HPM_P1;HPM_P2
2023/03/22 00:00:44;;;;;;;6.35;4.30;;;;;;;8.82;99.34;100937.72;5078674;28;20542;-82
2023/03/22 00:03:10;;;;;;;9.60;4.47;;;;;;;8.79;99.49;100928.19;5069815;28;20108;-83
2023/03/22 00:05:35;;;;;;;8.57;4.00;;;;;;;8.78;99.22;100930.94;5068339;28;20079;-82
2023/03/22 00:08:04;;;;;;;8.75;3.67;;;;;;;8.76;99.47;100928.38;5082375;28;20110;-82
2023/03/22 00:10:30;;;;;;;7.07;3.78;;;;;;;8.74;99.34;100930.28;5082207;28;20029;-82
2023/03/22 00:12:56;;;;;;;9.30;4.53;;;;;;;8.69;99.11;100922.66;5082655;28;20543;-82
2023/03/22 00:15:22;;;;;;;6.28;4.22;;;;;;;8.66;99.51;100919.34;5067556;28;20064;-82
2023/03/22 00:17:49;;;;;;;10.27;4.50;;;;;;;8.63;99.90;100909.81;5063554;28;20029;-83
2023/03/22 00:20:16;;;;;;;11.27;3.72;;;;;;;8.61;99.55;100911.72;5077957;28;20055;-82
2023/03/22 00:22:42;;;;;;;11.48;3.80;;;;;;;8.58;99.74;100914.59;5065242;28;20032;-82
2023/03/22 00:25:08;;;;;;;9.00;4.05;;;;;;;8.54;99.80;100910.44;5066758;28;20025;-83
2023/03/22 00:27:33;;;;;;;9.18;3.92;;;;;;;8.50;99.79;100901.84;5081783;28;20024;-82
2023/03/22 00:29:59;;;;;;;9.98;3.50;;;;;;;8.51;100.00;100900.06;5072325;28;20070;-82
2023/03/22 00:32:24;;;;;;;9.68;3.90;;;;;;;8.49;100.00;100899.31;5064182;28;20037;-82
2023/03/22 00:34:49;;;;;;;9.88;3.72;;;;;;;8.46;100.00;100891.56;5068055;28;20036;-82
2023/03/22 00:37:15;;;;;;;8.15;3.90;;;;;;;8.45;100.00;100888.06;5073407;28;20099;-82
2023/03/22 00:39:41;;;;;;;10.23;3.90;;;;;;;8.44;100.00;100881.09;5076309;28;21028;-82
2023/03/22 00:42:06;;;;;;;11.20;3.90;;;;;;;8.42;100.00;100882.13;5082912;28;20384;-82
2023/03/22 00:44:31;;;;;;;8.38;3.80;;;;;;;8.42;100.00;100880.31;5080369;28;20036;-82
2023/03/22 00:46:57;;;;;;;11.45;3.75;;;;;;;8.42;100.00;100877.66;5062416;28;20107;-82
2023/03/22 00:49:24;;;;;;;12.10;4.53;;;;;;;8.41;100.00;100875.13;5074483;28;20055;-83
2023/03/22 00:51:49;;;;;;;10.40;4.05;;;;;;;8.41;100.00;100875.13;5071796;28;20031;-82
2023/03/22 00:54:16;;;;;;;7.88;3.92;;;;;;;8.40;100.00;100866.34;5076682;28;20029;-82
2023/03/22 00:56:44;;;;;;;10.40;4.30;;;;;;;8.40;100.00;100865.50;5072576;28;20033;-82
2023/03/22 00:59:09;;;;;;;8.65;4.47;;;;;;;8.40;100.00;100860.19;5064600;28;20021;-82
2023/03/22 01:01:34;;;;;;;11.63;4.47;;;;;;;8.40;100.00;100854.91;5073839;28;20048;-82
2023/03/22 01:04:00;;;;;;;9.77;4.53;;;;;;;8.38;100.00;100849.72;5076871;28;20028;-82
2023/03/22 01:06:26;;;;;;;11.18;5.13;;;;;;;8.39;100.00;100851.38;5075731;28;20028;-82
2023/03/22 01:08:53;;;;;;;10.93;5.72;;;;;;;8.40;100.00;100846.97;5079053;28;20123;-82
2023/03/22 01:11:19;;;;;;;15.55;6.72;;;;;;;8.40;100.00;100839.88;5063507;28;20029;-82
2023/03/22 01:13:46;;;;;;;12.98;6.65;;;;;;;8.44;100.00;100843.19;5064873;28;20029;-82
2023/03/22 01:16:12;;;;;;;15.75;7.00;;;;;;;8.45;100.00;100837.78;5072658;28;20537;-82
2023/03/22 01:18:38;;;;;;;12.57;7.13;;;;;;;8.47;100.00;100838.53;5080385;28;20037;-82
2023/03/22 01:21:03;;;;;;;15.73;7.50;;;;;;;8.48;100.00;100823.50;5068363;28;20357;-82
2023/03/22 01:23:29;;;;;;;15.25;8.27;;;;;;;8.50;100.00;100819.78;5081584;28;20032;-82
2023/03/22 01:25:54;;;;;;;14.90;8.13;;;;;;;8.51;100.00;100807.44;5069583;28;20048;-82
2023/03/22 01:28:20;;;;;;;14.05;8.57;;;;;;;8.54;100.00;100804.53;5068921;28;20036;-82
2023/03/22 01:30:45;;;;;;;14.68;8.40;;;;;;;8.55;100.00;100793.00;5067346;28;20057;-82
2023/03/22 01:33:10;;;;;;;16.48;8.98;;;;;;;8.56;100.00;100788.56;5081331;28;20059;-82
2023/03/22 01:35:35;;;;;;;12.20;9.15;;;;;;;8.61;100.00;100786.44;5068494;28;20090;-82
2023/03/22 01:38:01;;;;;;;13.27;9.20;;;;;;;8.61;100.00;100782.00;5066972;28;20021;-82
2023/03/22 01:40:27;;;;;;;15.40;9.40;;;;;;;8.66;100.00;100779.00;5068365;28;20108;-82
2023/03/22 01:42:53;;;;;;;15.30;9.20;;;;;;;8.67;100.00;100781.56;5081633;28;20071;-82
2023/03/22 01:45:21;;;;;;;14.73;9.73;;;;;;;8.70;100.00;100776.06;5098548;28;20066;-82
2023/03/22 01:47:53;;;;;;;17.35;9.73;;;;;;;8.72;100.00;100768.00;5092380;28;20033;-82
2023/03/22 01:50:20;;;;;;;16.83;9.30;;;;;;;8.74;100.00;100758.16;5076430;28;20040;-82
2023/03/22 01:52:48;;;;;;;13.38;9.50;;;;;;;8.77;100.00;100757.09;5083259;28;20027;-82
2023/03/22 01:55:13;;;;;;;13.88;9.15;;;;;;;8.79;100.00;100753.41;5093513;28;20043;-83
2023/03/22 01:57:41;;;;;;;13.82;9.65;;;;;;;8.83;100.00;100754.03;5075754;28;20425;-82
2023/03/22 02:00:14;;;;;;;13.82;9.95;;;;;;;8.84;100.00;100745.09;5085867;28;20088;-82
2023/03/22 02:02:39;;;;;;;16.30;10.38;;;;;;;8.86;100.00;100743.22;5091475;28;20029;-82
2023/03/22 02:05:05;;;;;;;17.02;9.82;;;;;;;8.86;100.00;100732.63;5082623;28;20036;-82
2023/03/22 02:07:31;;;;;;;17.88;10.32;;;;;;;8.87;100.00;100744.88;5074739;28;20029;-82
2023/03/22 02:09:58;;;;;;;15.38;10.48;;;;;;;8.89;100.00;100742.97;5084707;28;20031;-82
2023/03/22 02:12:31;;;;;;;17.08;10.45;;;;;;;8.89;100.00;100737.69;5089329;28;20028;-83
2023/03/22 02:15:11;;;;;;;16.02;10.90;;;;;;;8.89;100.00;100727.06;5082490;28;20032;-83
2023/03/22 02:17:50;;;;;;;12.82;10.07;;;;;;;8.93;100.00;100728.56;5086728;28;20038;-83
2023/03/22 02:20:40;;;;;;;15.88;10.70;;;;;;;8.93;100.00;100730.38;5079368;28;20021;-83
2023/03/22 02:23:49;;;;;;;15.40;10.57;;;;;;;8.96;100.00;100730.13;5075737;28;20051;-83
2023/03/22 02:26:32;;;;;;;17.97;11.00;;;;;;;8.92;100.00;100723.38;5071997;28;20025;-83
2023/03/22 02:29:18;;;;;;;18.15;10.50;;;;;;;8.94;100.00;100719.66;5074419;28;20037;-83
2023/03/22 02:32:16;;;;;;;15.88;11.13;;;;;;;8.97;100.00;100711.47;5084608;28;20036;-83
2023/03/22 02:35:19;;;;;;;16.10;10.75;;;;;;;9.00;100.00;100721.03;5081953;28;20044;-83
2023/03/22 02:38:21;;;;;;;14.00;9.75;;;;;;;9.01;100.00;100717.41;5078525;28;20017;-83
2023/03/22 02:41:14;;;;;;;13.25;10.23;;;;;;;9.00;100.00;100713.91;5084993;28;20037;-83
2023/03/22 02:43:45;;;;;;;14.95;9.57;;;;;;;9.00;100.00;100713.09;5078438;28;20090;-83
2023/03/22 02:46:14;;;;;;;12.10;9.90;;;;;;;9.01;100.00;100707.69;5083584;28;20708;-83
2023/03/22 02:49:10;;;;;;;16.58;9.20;;;;;;;9.04;100.00;100714.53;5060413;28;20621;-82
2023/03/22 02:51:42;;;;;;;14.02;9.48;;;;;;;9.05;100.00;100709.13;5071274;28;20089;-82
2023/03/22 02:54:19;;;;;;;14.38;8.98;;;;;;;9.07;100.00;100701.91;5071645;28;20046;-83
2023/03/22 02:56:58;;;;;;;13.13;8.43;;;;;;;9.08;100.00;100693.00;5066265;28;20036;-83
2023/03/22 02:59:27;;;;;;;10.95;8.70;;;;;;;9.10;100.00;100681.47;5082901;28;20040;-83
2023/03/22 03:01:56;;;;;;;9.30;7.68;;;;;;;9.12;100.00;100688.34;5072700;28;20021;-83
2023/03/22 03:04:34;;;;;;;10.70;8.43;;;;;;;9.14;100.00;100693.53;5082338;28;20024;-83
2023/03/22 03:07:04;;;;;;;10.95;8.02;;;;;;;9.14;100.00;100688.22;5077924;28;20021;-82
2023/03/22 03:09:31;;;;;;;11.07;7.57;;;;;;;9.14;100.00;100682.94;5076828;28;20400;-82
2023/03/22 03:11:56;;;;;;;12.15;7.53;;;;;;;9.13;100.00;100676.78;5071070;28;20687;-82
2023/03/22 03:14:25;;;;;;;11.55;7.47;;;;;;;9.13;100.00;100678.59;5077380;28;20036;-82
2023/03/22 03:17:05;;;;;;;11.23;7.38;;;;;;;9.14;100.00;100677.63;5078362;28;20021;-82
2023/03/22 03:20:11;;;;;;;10.07;6.60;;;;;;;9.18;100.00;100687.91;5079369;28;20048;-82
2023/03/22 03:23:01;;;;;;;9.98;6.60;;;;;;;9.17;100.00;100675.59;5030489;28;20033;-82
2023/03/22 03:25:42;;;;;;;10.98;6.75;;;;;;;9.17;100.00;100675.59;5076323;28;20036;-82
2023/03/22 03:28:39;;;;;;;12.30;6.93;;;;;;;9.15;100.00;100674.88;5081911;28;20083;-82
2023/03/22 03:31:15;;;;;;;10.57;6.10;;;;;;;9.14;100.00;100672.31;5076078;28;20055;-82
2023/03/22 03:33:51;;;;;;;11.25;6.20;;;;;;;9.14;100.00;100678.47;5075123;28;20522;-82
2023/03/22 03:36:19;;;;;;;10.90;6.22;;;;;;;9.13;100.00;100671.50;5069199;28;20092;-82
2023/03/22 03:38:49;;;;;;;11.52;6.13;;;;;;;9.13;100.00;100675.94;5076745;28;20028;-82
2023/03/22 03:41:22;;;;;;;11.05;6.15;;;;;;;9.12;100.00;100666.31;5070251;28;20051;-82
2023/03/22 03:43:48;;;;;;;10.52;5.80;;;;;;;9.11;100.00;100667.25;5080220;28;20451;-82
2023/03/22 03:46:14;;;;;;;9.35;5.88;;;;;;;9.10;100.00;100669.06;5077441;28;20025;-82
2023/03/22 03:48:43;;;;;;;13.60;5.82;;;;;;;9.09;100.00;100670.00;5073743;28;20029;-82
2023/03/22 03:51:08;;;;;;;9.63;5.18;;;;;;;9.11;100.00;100675.19;5086068;28;20089;-82
2023/03/22 03:53:33;;;;;;;9.55;5.47;;;;;;;9.10;100.00;100676.16;5081730;28;20025;-82
2023/03/22 03:55:59;;;;;;;7.97;5.18;;;;;;;9.08;100.00;100677.13;5087657;28;20050;-82
2023/03/22 03:58:24;;;;;;;10.32;4.93;;;;;;;9.05;100.00;100680.00;5075718;28;20025;-82
2023/03/22 04:00:49;;;;;;;14.13;5.78;;;;;;;9.06;100.00;100681.69;5068759;28;20071;-82
2023/03/22 04:03:16;;;;;;;10.43;5.53;;;;;;;9.04;100.00;100678.31;5084985;28;20043;-82
2023/03/22 04:05:41;;;;;;;10.73;5.40;;;;;;;9.04;100.00;100680.97;5077759;28;20040;-82
2023/03/22 04:08:07;;;;;;;11.70;5.20;;;;;;;9.02;100.00;100674.91;5074035;28;20017;-82
2023/03/22 04:10:32;;;;;;;8.02;4.55;;;;;;;9.00;100.00;100678.63;5084032;28;20088;-82
2023/03/22 04:12:58;;;;;;;9.45;5.10;;;;;;;8.97;100.00;100682.34;5066350;28;20047;-82
2023/03/22 04:15:23;;;;;;;7.38;4.90;;;;;;;8.94;100.00;100679.91;5089245;28;20020;-82
2023/03/22 04:17:49;;;;;;;8.98;5.50;;;;;;;8.92;100.00;100673.06;5080291;28;20032;-82
2023/03/22 04:20:15;;;;;;;7.50;4.72;;;;;;;8.90;100.00;100675.81;5068836;28;20033;-82
2023/03/22 04:22:41;;;;;;;11.32;4.82;;;;;;;8.86;100.00;100672.53;5077805;28;20260;-82
2023/03/22 04:25:12;;;;;;;12.13;4.63;;;;;;;8.79;100.00;100663.34;5076364;28;20056;-82
2023/03/22 04:27:39;;;;;;;9.98;5.00;;;;;;;8.83;100.00;100666.63;5078908;28;20020;-82
2023/03/22 04:30:09;;;;;;;7.10;4.22;;;;;;;8.84;100.00;100660.34;5081213;28;20059;-82
2023/03/22 04:32:34;;;;;;;7.82;4.45;;;;;;;8.81;100.00;100657.91;5081258;28;20043;-82
2023/03/22 04:34:59;;;;;;;10.15;4.95;;;;;;;8.81;100.00;100660.56;5069473;28;20037;-82
2023/03/22 04:37:25;;;;;;;8.63;4.72;;;;;;;8.78;100.00;100651.06;5084897;28;20039;-82
2023/03/22 04:39:51;;;;;;;11.32;4.68;;;;;;;8.77;100.00;100646.72;5075210;28;20126;-82
2023/03/22 04:42:17;;;;;;;9.05;4.55;;;;;;;8.76;100.00;100654.75;5066060;28;20057;-82
2023/03/22 04:44:42;;;;;;;10.40;4.43;;;;;;;8.76;100.00;100658.28;5076455;28;20108;-82
2023/03/22 04:47:07;;;;;;;7.25;4.53;;;;;;;8.75;100.00;100655.75;5072901;28;20438;-82
2023/03/22 04:49:33;;;;;;;9.20;4.75;;;;;;;8.74;100.00;100656.69;5086479;28;20086;-82
2023/03/22 04:51:58;;;;;;;10.52;4.45;;;;;;;8.70;100.00;100648.94;5083729;28;20036;-82
2023/03/22 04:54:23;;;;;;;9.90;4.60;;;;;;;8.73;100.00;100652.34;5075998;28;20029;-82
2023/03/22 04:56:49;;;;;;;9.10;4.22;;;;;;;8.72;100.00;100656.78;5084897;28;20024;-82
2023/03/22 04:59:19;;;;;;;8.60;4.25;;;;;;;8.72;100.00;100661.25;5075923;28;20024;-82
2023/03/22 05:01:44;;;;;;;;;;;;;;;8.76;100.00;100654.75;5090394;28;20041;-82
2023/03/22 05:04:10;;;;;;;15.15;4.65;;;;;;;8.69;100.00;100647.28;5083071;28;19920;-82
2023/03/22 05:06:35;;;;;;;10.77;4.30;;;;;;;8.72;100.00;100651.50;5081014;28;20024;-82
2023/03/22 05:09:01;;;;;;;8.48;4.53;;;;;;;8.71;100.00;100644.53;5084782;28;20048;-82
2023/03/22 05:11:27;;;;;;;8.63;4.50;;;;;;;8.69;100.00;100642.00;5086835;28;20025;-82
2023/03/22 05:13:55;;;;;;;10.80;4.50;;;;;;;8.70;100.00;100638.38;5084836;28;20028;-82
2023/03/22 05:16:21;;;;;;;10.10;4.05;;;;;;;8.71;100.00;100641.88;5080582;28;20063;-82
2023/03/22 05:18:46;;;;;;;6.57;4.03;;;;;;;8.69;100.00;100636.69;5076309;28;20029;-82
2023/03/22 05:21:14;;;;;;;10.43;3.97;;;;;;;8.70;100.00;100637.53;5087090;28;20036;-82
2023/03/22 05:23:40;;;;;;;10.43;4.03;;;;;;;8.69;100.00;100634.03;5072232;28;20032;-82
2023/03/22 05:26:07;;;;;;;9.35;4.30;;;;;;;8.69;100.00;100646.41;5088870;28;20033;-82
2023/03/22 05:28:33;;;;;;;7.07;3.75;;;;;;;8.68;100.00;100640.28;5092084;28;20105;-82
2023/03/22 05:30:58;;;;;;;7.68;3.90;;;;;;;8.70;100.00;100643.66;5077275;28;20021;-82
2023/03/22 05:33:23;;;;;;;11.75;4.22;;;;;;;8.70;100.00;100654.25;5081281;28;20042;-82
2023/03/22 05:35:49;;;;;;;9.15;3.65;;;;;;;8.69;100.00;100642.00;5086604;28;20461;-82
2023/03/22 05:38:15;;;;;;;7.78;4.00;;;;;;;8.70;100.00;100643.66;5083636;28;20025;-82
2023/03/22 05:40:42;;;;;;;11.18;4.20;;;;;;;8.66;100.00;100631.63;5078569;28;20097;-82
2023/03/22 05:43:07;;;;;;;10.45;3.42;;;;;;;8.68;100.00;100640.28;5083342;28;20449;-82
2023/03/22 05:45:35;;;;;;;11.20;3.60;;;;;;;8.68;100.00;100635.00;5090659;28;20016;-82
2023/03/22 05:48:00;;;;;;;9.52;3.38;;;;;;;8.68;100.00;100637.63;5089501;28;20032;-82
2023/03/22 05:50:26;;;;;;;12.98;3.50;;;;;;;8.70;100.00;100637.53;5084661;28;20408;-82
2023/03/22 05:52:51;;;;;;;7.88;3.45;;;;;;;8.69;100.00;100644.63;5088061;28;20029;-82
2023/03/22 05:55:17;;;;;;;8.38;3.42;;;;;;;8.70;100.00;100643.66;5079385;28;20118;-82
2023/03/22 05:57:43;;;;;;;8.30;3.33;;;;;;;8.70;100.00;100642.81;5082978;28;20025;-82
2023/03/22 06:00:13;;;;;;;9.55;3.78;;;;;;;8.67;100.00;100643.03;5077841;28;20033;-82
2023/03/22 06:02:39;;;;;;;6.25;3.13;;;;;;;8.70;100.00;100648.94;5093407;28;20036;-82
2023/03/22 06:05:06;;;;;;;10.60;3.53;;;;;;;8.70;100.00;100641.00;5075935;28;20033;-82
2023/03/22 06:07:31;;;;;;;8.20;3.78;;;;;;;8.74;100.00;100635.50;5059604;28;20044;-82
2023/03/22 06:09:57;;;;;;;9.73;3.30;;;;;;;8.74;100.00;100638.16;5079065;28;20047;-82
2023/03/22 06:12:24;;;;;;;10.55;3.95;;;;;;;8.75;100.00;100640.69;5094392;28;20028;-82
2023/03/22 06:14:50;;;;;;;12.75;3.53;;;;;;;8.77;100.00;100638.75;5080553;28;20053;-82
2023/03/22 06:17:15;;;;;;;11.18;3.42;;;;;;;8.75;100.00;100634.56;5090590;28;20059;-82
2023/03/22 06:19:41;;;;;;;10.55;3.55;;;;;;;8.79;100.00;100636.88;5077192;28;20049;-82
2023/03/22 06:22:06;;;;;;;11.40;3.42;;;;;;;8.79;100.00;100630.72;5072824;28;20071;-82
2023/03/22 06:24:31;;;;;;;12.23;3.70;;;;;;;8.83;100.00;100634.84;5088481;28;20043;-82
2023/03/22 06:26:56;;;;;;;12.88;4.05;;;;;;;8.81;100.00;100637.59;5071610;28;20028;-82
2023/03/22 06:29:22;;;;;;;9.82;3.50;;;;;;;8.86;100.00;100645.22;5068853;28;20063;-82
2023/03/22 06:31:47;;;;;;;13.18;3.67;;;;;;;8.86;100.00;100635.47;5069624;28;20029;-82
2023/03/22 06:34:12;;;;;;;12.70;3.70;;;;;;;8.92;100.00;100638.63;5054239;28;20026;-82
2023/03/22 06:36:38;;;;;;;10.95;4.30;;;;;;;8.95;100.00;100641.06;5059663;28;20039;-82
2023/03/22 06:39:04;;;;;;;13.65;4.00;;;;;;;8.96;100.00;100634.78;5066000;28;20040;-82
2023/03/22 06:41:29;;;;;;;13.27;3.83;;;;;;;8.99;100.00;100637.19;5062004;28;20031;-82
2023/03/22 06:43:54;;;;;;;10.32;4.00;;;;;;;9.02;100.00;100642.28;5064381;28;20028;-82
2023/03/22 06:46:20;;;;;;;12.45;4.03;;;;;;;9.05;100.00;100653.50;5060295;28;20462;-82
2023/03/22 06:48:45;;;;;;;13.88;4.22;;;;;;;9.09;100.00;100643.50;5056817;28;20028;-82
2023/03/22 06:51:10;;;;;;;9.82;3.92;;;;;;;9.14;100.00;100640.53;5075265;28;20049;-82
2023/03/22 06:53:36;;;;;;;9.70;4.55;;;;;;;9.19;100.00;100641.91;5070925;28;20056;-82
2023/03/22 06:56:01;;;;;;;11.05;4.25;;;;;;;9.26;100.00;100635.19;5062159;28;20036;-82
2023/03/22 06:58:27;;;;;;;16.65;4.47;;;;;;;9.30;100.00;100635.78;5064791;28;20029;-82
2023/03/22 07:00:55;;;;;;;11.95;4.05;;;;;;;9.36;100.00;100635.34;5079495;28;20041;-82
2023/03/22 07:03:20;;;;;;;16.20;4.47;;;;;;;9.41;100.00;100645.59;5068132;28;20028;-82
2023/03/22 07:05:45;;;;;;;11.25;3.75;;;;;;;9.45;99.43;100633.78;5054004;28;20072;-82
2023/03/22 07:08:10;;;;;;;9.18;4.35;;;;;;;9.45;99.49;100642.59;5065470;28;20082;-82
2023/03/22 07:10:36;;;;;;;12.95;4.80;;;;;;;9.50;98.65;100636.09;5055015;28;20033;-82
2023/03/22 07:13:02;;;;;;;14.18;4.18;;;;;;;9.51;98.64;100625.38;5060362;28;20063;-82
2023/03/22 07:15:28;;;;;;;10.30;3.67;;;;;;;9.54;97.70;100635.75;5064748;28;20056;-82
2023/03/22 07:17:56;;;;;;;12.50;3.88;;;;;;;9.56;97.33;100631.19;5062364;28;20025;-82
2023/03/22 07:20:21;;;;;;;8.45;3.55;;;;;;;9.57;97.32;100630.19;5056322;28;20083;-82
2023/03/22 07:22:48;;;;;;;8.38;4.18;;;;;;;9.59;97.26;100635.38;5059437;28;20028;-82
2023/03/22 07:25:14;;;;;;;6.35;4.07;;;;;;;9.66;96.38;100641.06;5057822;28;20516;-82
2023/03/22 07:27:39;;;;;;;13.30;4.28;;;;;;;9.68;96.28;100645.31;5055810;28;20033;-82
2023/03/22 07:30:06;;;;;;;7.93;4.40;;;;;;;9.73;96.23;100643.16;5067191;28;20067;-81
2023/03/22 07:32:31;;;;;;;10.90;4.35;;;;;;;9.76;96.11;100642.94;5087828;28;20526;-81
2023/03/22 07:34:56;;;;;;;12.18;4.95;;;;;;;9.79;96.15;100645.34;5082686;28;20032;-81
2023/03/22 07:37:22;;;;;;;9.52;5.22;;;;;;;9.85;95.55;100651.97;5082264;28;20055;-81
2023/03/22 07:39:47;;;;;;;10.35;4.97;;;;;;;9.89;95.42;100652.59;5082825;28;20029;-82
2023/03/22 07:42:13;;;;;;;13.30;4.75;;;;;;;9.94;95.08;100642.47;5071389;28;20044;-82
2023/03/22 07:44:38;;;;;;;14.38;4.78;;;;;;;9.97;94.85;100644.88;5081837;28;20040;-82
2023/03/22 07:47:03;;;;;;;9.27;4.47;;;;;;;10.03;94.34;100633.78;5055829;28;20045;-82
2023/03/22 07:49:30;;;;;;;13.50;4.43;;;;;;;10.09;93.86;100640.44;5078407;28;20032;-81
2023/03/22 07:51:55;;;;;;;13.55;4.70;;;;;;;10.16;93.49;100644.31;5078294;28;20040;-82
2023/03/22 07:54:20;;;;;;;14.18;5.15;;;;;;;10.25;92.58;100661.31;5073591;28;20031;-81
2023/03/22 07:56:46;;;;;;;8.85;4.15;;;;;;;10.30;91.68;100643.22;5074889;28;20033;-81
2023/03/22 07:59:12;;;;;;;10.00;3.53;;;;;;;10.37;90.23;100657.72;5082023;28;20033;-81
2023/03/22 08:01:38;;;;;;;9.73;3.75;;;;;;;10.38;89.20;100635.53;5078703;28;20051;-81
2023/03/22 08:04:03;;;;;;;13.98;3.75;;;;;;;10.42;89.46;100644.94;5072954;28;20056;-82
2023/03/22 08:06:31;;;;;;;10.63;3.65;;;;;;;10.43;88.32;100648.44;5065608;28;20044;-81
2023/03/22 08:08:56;;;;;;;10.45;3.08;;;;;;;10.47;87.73;100653.38;5082095;28;20056;-81
2023/03/22 08:11:22;;;;;;;14.00;3.13;;;;;;;10.50;88.40;100646.97;5080409;28;20041;-81
2023/03/22 08:13:47;;;;;;;9.98;3.40;;;;;;;10.55;86.96;100644.81;5061529;28;20048;-81
2023/03/22 08:16:12;;;;;;;8.82;2.90;;;;;;;10.62;87.36;100653.97;5078632;28;20071;-81
2023/03/22 08:18:38;;;;;;;10.95;3.08;;;;;;;10.66;86.48;100646.63;5064385;28;20028;-82
2023/03/22 08:21:04;;;;;;;9.75;2.72;;;;;;;10.74;87.14;100646.81;5081699;28;20036;-81
2023/03/22 08:23:29;;;;;;;10.27;3.03;;;;;;;10.81;86.77;100649.81;5075684;28;20040;-82
2023/03/22 08:25:55;;;;;;;8.35;3.00;;;;;;;10.87;86.17;100649.34;5079170;28;20040;-81
2023/03/22 08:28:20;;;;;;;10.25;2.60;;;;;;;10.95;85.62;100648.72;5074547;28;20048;-82
2023/03/22 08:30:47;;;;;;;11.70;3.30;;;;;;;11.04;86.56;100648.81;5085193;28;20087;-82
2023/03/22 08:33:13;;;;;;;10.10;2.88;;;;;;;11.14;84.52;100640.06;5080475;28;20035;-82
2023/03/22 08:35:39;;;;;;;11.27;2.85;;;;;;;11.18;84.29;100637.03;5072993;28;20032;-82
2023/03/22 08:38:05;;;;;;;9.25;2.53;;;;;;;11.23;82.99;100634.00;5080143;28;20024;-82
2023/03/22 08:40:31;;;;;;;15.07;3.08;;;;;;;11.29;83.31;100633.47;5078486;28;20032;-82
2023/03/22 08:42:57;;;;;;;7.95;2.80;;;;;;;11.33;83.50;100626.97;5078573;28;20066;-82
2023/03/22 08:45:22;;;;;;;8.00;2.70;;;;;;;11.37;81.93;100641.66;5068955;28;20028;-82
2023/03/22 08:47:48;;;;;;;10.30;3.20;;;;;;;11.40;83.16;100641.41;5075015;28;20031;-82
2023/03/22 08:50:13;;;;;;;8.60;2.80;;;;;;;11.46;82.78;100638.25;5063970;28;20049;-82
2023/03/22 08:52:38;;;;;;;9.05;2.65;;;;;;;11.51;82.14;100632.56;5053281;28;20024;-82
2023/03/22 08:55:05;;;;;;;10.55;3.22;;;;;;;11.57;81.37;100644.47;5066126;28;20037;-82
2023/03/22 08:57:31;;;;;;;12.68;2.47;;;;;;;11.59;82.14;100638.06;5064786;28;20365;-83
2023/03/22 08:59:57;;;;;;;10.82;2.88;;;;;;;11.64;82.10;100642.97;5067287;28;20036;-82
2023/03/22 09:02:26;;;;;;;11.00;2.83;;;;;;;11.64;79.83;100633.22;5083344;28;20035;-82
2023/03/22 09:04:51;;;;;;;12.98;2.90;;;;;;;11.67;79.32;100640.06;5080798;28;20049;-82
2023/03/22 09:07:19;;;;;;;9.98;2.50;;;;;;;11.70;80.57;100634.50;5076528;28;20031;-82
2023/03/22 09:09:44;;;;;;;8.25;2.58;;;;;;;11.73;79.92;100633.41;5080475;28;20025;-82
2023/03/22 09:12:10;;;;;;;11.23;2.70;;;;;;;11.74;80.10;100629.75;5076252;28;20029;-82
2023/03/22 09:14:35;;;;;;;14.68;2.88;;;;;;;11.78;79.12;100623.22;5046632;28;20025;-82
2023/03/22 09:17:01;;;;;;;9.00;2.65;;;;;;;11.84;78.83;100625.34;5071362;28;20041;-82
2023/03/22 09:19:26;;;;;;;10.13;2.70;;;;;;;11.90;78.50;100624.81;5080408;28;20104;-82
2023/03/22 09:21:51;;;;;;;10.93;3.00;;;;;;;11.96;79.11;100618.16;5075522;28;20116;-82
2023/03/22 09:24:17;;;;;;;12.80;2.40;;;;;;;12.06;78.14;100610.22;5059497;28;20029;-82
2023/03/22 09:26:43;;;;;;;6.60;2.33;;;;;;;12.07;77.37;100617.22;5085069;28;20030;-82
2023/03/22 09:29:09;;;;;;;10.07;2.60;;;;;;;12.07;76.67;100622.56;5075243;28;20041;-82
2023/03/22 09:31:34;;;;;;;9.60;2.60;;;;;;;12.08;77.72;100616.25;5074325;28;20049;-83
2023/03/22 09:33:59;;;;;;;9.38;2.45;;;;;;;12.15;78.05;100620.91;5076014;28;20083;-82
2023/03/22 09:36:25;;;;;;;7.90;2.60;;;;;;;12.21;77.28;100615.06;5069509;28;20043;-82
2023/03/22 09:38:51;;;;;;;13.30;2.25;;;;;;;12.21;76.07;100615.06;5068355;28;20068;-82
2023/03/22 09:41:23;;;;;;;11.50;2.47;;;;;;;12.21;76.12;100612.38;5071186;28;20032;-82
2023/03/22 09:43:55;;;;;;;15.73;2.42;;;;;;;12.15;75.26;100610.25;5065591;28;20039;-82
2023/03/22 09:46:30;;;;;;;13.73;2.65;;;;;;;12.13;76.48;100622.03;5075036;28;20024;-82
2023/03/22 09:48:58;;;;;;;9.27;2.25;;;;;;;12.06;74.87;100615.53;5083413;28;20036;-82
2023/03/22 09:51:36;;;;;;;8.83;2.20;;;;;;;12.03;75.56;100614.81;5071697;28;20037;-82
2023/03/22 09:54:02;;;;;;;17.60;2.70;;;;;;;12.00;75.68;100614.25;5080514;28;20057;-82
2023/03/22 09:56:30;;;;;;;12.48;2.67;;;;;;;11.98;76.15;100617.03;5078796;28;20116;-82
2023/03/22 09:59:29;;;;;;;7.40;2.53;;;;;;;12.05;77.34;100617.34;5079059;28;20035;-82
2023/03/22 10:01:59;;;;;;;13.90;2.85;;;;;;;12.02;76.02;100622.94;5050881;28;20040;-82
2023/03/22 10:04:47;;;;;;;12.05;2.80;;;;;;;11.96;76.43;100624.31;5075397;28;20024;-82
2023/03/22 10:07:26;;;;;;;11.73;2.85;;;;;;;11.93;76.44;100611.28;5082913;28;20035;-82
2023/03/22 10:10:17;;;;;;;11.27;2.72;;;;;;;11.93;77.44;100613.94;5075321;28;20074;-82
2023/03/22 10:12:52;;;;;;;13.82;2.47;;;;;;;11.90;77.62;100619.50;5062328;28;20029;-82
2023/03/22 10:15:29;;;;;;;8.52;2.35;;;;;;;11.89;77.12;100615.16;5078276;28;20036;-82
2023/03/22 10:17:57;;;;;;;6.43;2.17;;;;;;;11.88;77.87;100613.47;5077625;28;20415;-82
2023/03/22 10:20:47;;;;;;;9.05;2.22;;;;;;;11.89;78.66;100616.97;5075799;28;20407;-82
2023/03/22 10:23:16;;;;;;;7.93;2.22;;;;;;;11.81;79.11;100634.44;5073457;28;20044;-82
2023/03/22 10:25:42;;;;;;;11.93;2.55;;;;;;;11.74;79.40;100627.09;5073710;28;20040;-82
2023/03/22 10:28:18;;;;;;;9.52;2.47;;;;;;;11.67;80.51;100632.09;5068272;28;20029;-82
2023/03/22 10:30:49;;;;;;;9.48;2.45;;;;;;;11.62;82.93;100640.50;5070430;28;20041;-82
2023/03/22 10:33:38;;;;;;;9.20;2.53;;;;;;;11.55;83.92;100641.94;5064804;28;20031;-82
2023/03/22 10:36:08;;;;;;;7.95;2.50;;;;;;;11.43;86.14;100637.69;5086242;28;20048;-82
2023/03/22 10:38:41;;;;;;;8.60;2.30;;;;;;;11.32;87.89;100633.22;5086178;28;20032;-82
2023/03/22 10:41:08;;;;;;;12.18;2.83;;;;;;;11.26;90.86;100631.94;5073099;28;20028;-82
2023/03/22 10:43:36;;;;;;;12.63;2.40;;;;;;;11.17;91.47;100638.00;5072949;28;20028;-82
2023/03/22 10:46:06;;;;;;;9.90;2.45;;;;;;;11.16;92.57;100633.69;5076217;28;20036;-82
2023/03/22 10:48:39;;;;;;;9.27;2.50;;;;;;;11.11;93.45;100633.22;5076604;28;20034;-82
2023/03/22 10:51:05;;;;;;;8.75;3.00;;;;;;;11.11;94.72;100628.72;5072235;28;20024;-82
2023/03/22 10:53:46;;;;;;;9.60;3.20;;;;;;;11.13;94.18;100623.28;5058446;28;20020;-81
2023/03/22 10:56:14;;;;;;;7.10;2.80;;;;;;;11.10;96.48;100628.84;5069473;28;20514;-82
2023/03/22 10:58:40;;;;;;;9.25;2.80;;;;;;;11.07;95.76;100623.78;5078860;28;20032;-82
2023/03/22 11:01:13;;;;;;;6.25;2.40;;;;;;;11.03;97.01;100627.69;5076337;28;20379;-82
2023/03/22 11:03:41;;;;;;;13.75;3.72;;;;;;;10.97;97.87;100633.50;5070485;28;20058;-82
2023/03/22 11:06:06;;;;;;;10.63;2.90;;;;;;;10.95;98.34;100627.47;5060083;28;20029;-82
2023/03/22 11:08:53;;;;;;;7.40;3.00;;;;;;;10.92;99.50;100631.22;5068109;28;20384;-82
2023/03/22 11:11:22;;;;;;;8.00;2.72;;;;;;;10.87;99.06;100620.94;5070735;28;20032;-82
2023/03/22 11:14:00;;;;;;;13.00;3.03;;;;;;;10.82;99.06;100632.94;5071037;28;20029;-82
2023/03/22 11:16:27;;;;;;;10.95;3.08;;;;;;;10.79;100.00;100625.19;5072510;28;20024;-82
2023/03/22 11:18:54;;;;;;;11.10;3.22;;;;;;;10.78;100.00;100616.41;5063741;28;20032;-83
2023/03/22 11:21:24;;;;;;;12.70;3.38;;;;;;;10.79;100.00;100618.09;5081240;28;20048;-82
2023/03/22 11:23:59;;;;;;;9.85;3.60;;;;;;;10.81;100.00;100607.31;5073640;28;20078;-82
2023/03/22 11:26:32;;;;;;;10.10;3.03;;;;;;;10.81;98.89;100604.66;5077807;28;20442;-82
2023/03/22 11:29:12;;;;;;;10.85;3.13;;;;;;;10.87;98.77;100612.97;5070387;28;20373;-82